<?xml version="1.0" encoding="UTF-8" standalone="no" ?>
<gpx xmlns="http://www.topografix.com/GPX/1/1" xmlns:xsi="http://www.w3.org/2001/XMLSchema-instance" xsi:schemaLocation="http://www.topografix.com/GPX/1/1 http://www.topografix.com/GPX/1/1/gpx.xsd" version="1.1" creator="VisuGPX - https://www.visugpx.com">
  <metadata>
    <name>RANDONNÉE CIRCUIT DES PASSERELLES ST JEAN D'ARVEY</name>
  </metadata>
  <trk>
    <name><![CDATA[RANDONNÉE CIRCUIT DES PASSERELLES ST JEAN D'ARVEY]]></name>
    <trkseg>
      <trkpt lat="45.5846" lon="5.99789">
        <ele>562</ele>
        <time>2019-06-16T08:59:29+02:00</time>
      </trkpt>
      <trkpt lat="45.58493" lon="5.9981">
        <ele>565</ele>
        <time>2019-06-16T09:03:39+02:00</time>
      </trkpt>
      <trkpt lat="45.5853" lon="5.99815">
        <ele>568</ele>
        <time>2019-06-16T09:04:25+02:00</time>
      </trkpt>
      <trkpt lat="45.58565" lon="5.99821">
        <ele>574</ele>
        <time>2019-06-16T09:05:15+02:00</time>
      </trkpt>
      <trkpt lat="45.58592" lon="5.99857">
        <ele>578</ele>
        <time>2019-06-16T09:06:19+02:00</time>
      </trkpt>
      <trkpt lat="45.58594" lon="5.99909">
        <ele>579</ele>
        <time>2019-06-16T09:07:55+02:00</time>
      </trkpt>
      <trkpt lat="45.58598" lon="5.9996">
        <ele>581</ele>
        <time>2019-06-16T09:08:35+02:00</time>
      </trkpt>
      <trkpt lat="45.58598" lon="6.00012">
        <ele>581</ele>
        <time>2019-06-16T09:09:10+02:00</time>
      </trkpt>
      <trkpt lat="45.58594" lon="6.00064">
        <ele>580</ele>
        <time>2019-06-16T09:09:41+02:00</time>
      </trkpt>
      <trkpt lat="45.58595" lon="6.00117">
        <ele>580</ele>
        <time>2019-06-16T09:10:14+02:00</time>
      </trkpt>
      <trkpt lat="45.586" lon="6.00168">
        <ele>580</ele>
        <time>2019-06-16T09:10:49+02:00</time>
      </trkpt>
      <trkpt lat="45.58606" lon="6.00221">
        <ele>581</ele>
        <time>2019-06-16T09:11:30+02:00</time>
      </trkpt>
      <trkpt lat="45.5857" lon="6.00212">
        <ele>578</ele>
        <time>2019-06-16T09:12:45+02:00</time>
      </trkpt>
      <trkpt lat="45.58542" lon="6.00244">
        <ele>576</ele>
        <time>2019-06-16T09:13:17+02:00</time>
      </trkpt>
      <trkpt lat="45.58532" lon="6.00295">
        <ele>575</ele>
        <time>2019-06-16T09:13:51+02:00</time>
      </trkpt>
      <trkpt lat="45.58516" lon="6.00342">
        <ele>575</ele>
        <time>2019-06-16T09:14:26+02:00</time>
      </trkpt>
      <trkpt lat="45.5848" lon="6.00334">
        <ele>572</ele>
        <time>2019-06-16T09:15:02+02:00</time>
      </trkpt>
      <trkpt lat="45.58448" lon="6.00357">
        <ele>568</ele>
        <time>2019-06-16T09:15:33+02:00</time>
      </trkpt>
      <trkpt lat="45.58422" lon="6.00394">
        <ele>563</ele>
        <time>2019-06-16T09:16:06+02:00</time>
      </trkpt>
      <trkpt lat="45.58385" lon="6.00395">
        <ele>560</ele>
        <time>2019-06-16T09:16:50+02:00</time>
      </trkpt>
      <trkpt lat="45.58397" lon="6.00445">
        <ele>554</ele>
        <time>2019-06-16T09:17:44+02:00</time>
      </trkpt>
      <trkpt lat="45.5842" lon="6.00486">
        <ele>550</ele>
        <time>2019-06-16T09:19:06+02:00</time>
      </trkpt>
      <trkpt lat="45.58415" lon="6.00538">
        <ele>545</ele>
        <time>2019-06-16T09:19:42+02:00</time>
      </trkpt>
      <trkpt lat="45.58396" lon="6.00582">
        <ele>543</ele>
        <time>2019-06-16T09:20:19+02:00</time>
      </trkpt>
      <trkpt lat="45.5839" lon="6.00632">
        <ele>543</ele>
        <time>2019-06-16T09:20:55+02:00</time>
      </trkpt>
      <trkpt lat="45.58376" lon="6.0068">
        <ele>534</ele>
        <time>2019-06-16T09:21:27+02:00</time>
      </trkpt>
      <trkpt lat="45.58364" lon="6.00729">
        <ele>534</ele>
        <time>2019-06-16T09:22:12+02:00</time>
      </trkpt>
      <trkpt lat="45.58331" lon="6.00752">
        <ele>529</ele>
        <time>2019-06-16T09:22:46+02:00</time>
      </trkpt>
      <trkpt lat="45.58343" lon="6.008">
        <ele>528</ele>
        <time>2019-06-16T09:23:25+02:00</time>
      </trkpt>
      <trkpt lat="45.58372" lon="6.00831">
        <ele>526</ele>
        <time>2019-06-16T09:24:07+02:00</time>
      </trkpt>
      <trkpt lat="45.58378" lon="6.00884">
        <ele>517</ele>
        <time>2019-06-16T09:24:44+02:00</time>
      </trkpt>
      <trkpt lat="45.58401" lon="6.00924">
        <ele>515</ele>
        <time>2019-06-16T09:25:20+02:00</time>
      </trkpt>
      <trkpt lat="45.58419" lon="6.00969">
        <ele>512</ele>
        <time>2019-06-16T09:26:06+02:00</time>
      </trkpt>
      <trkpt lat="45.58403" lon="6.01016">
        <ele>505</ele>
        <time>2019-06-16T09:27:04+02:00</time>
      </trkpt>
      <trkpt lat="45.58374" lon="6.01047">
        <ele>498</ele>
        <time>2019-06-16T09:27:59+02:00</time>
      </trkpt>
      <trkpt lat="45.58342" lon="6.01073">
        <ele>493</ele>
        <time>2019-06-16T09:28:35+02:00</time>
      </trkpt>
      <trkpt lat="45.58309" lon="6.01094">
        <ele>503</ele>
        <time>2019-06-16T09:29:53+02:00</time>
      </trkpt>
      <trkpt lat="45.58272" lon="6.01091">
        <ele>509</ele>
        <time>2019-06-16T09:30:49+02:00</time>
      </trkpt>
      <trkpt lat="45.58237" lon="6.01077">
        <ele>497</ele>
        <time>2019-06-16T09:31:22+02:00</time>
      </trkpt>
      <trkpt lat="45.5827" lon="6.01056">
        <ele>489</ele>
        <time>2019-06-16T09:35:23+02:00</time>
      </trkpt>
      <trkpt lat="45.58278" lon="6.01005">
        <ele>468</ele>
        <time>2019-06-16T09:36:54+02:00</time>
      </trkpt>
      <trkpt lat="45.58246" lon="6.00982">
        <ele>455</ele>
        <time>2019-06-16T09:38:15+02:00</time>
      </trkpt>
      <trkpt lat="45.58213" lon="6.00962">
        <ele>434</ele>
        <time>2019-06-16T09:39:31+02:00</time>
      </trkpt>
      <trkpt lat="45.58183" lon="6.00991">
        <ele>415</ele>
        <time>2019-06-16T09:42:34+02:00</time>
      </trkpt>
      <trkpt lat="45.58163" lon="6.01034">
        <ele>418</ele>
        <time>2019-06-16T09:44:19+02:00</time>
      </trkpt>
      <trkpt lat="45.58131" lon="6.01058">
        <ele>421</ele>
        <time>2019-06-16T09:48:11+02:00</time>
      </trkpt>
      <trkpt lat="45.58097" lon="6.01076">
        <ele>433</ele>
        <time>2019-06-16T09:49:15+02:00</time>
      </trkpt>
      <trkpt lat="45.58064" lon="6.01055">
        <ele>422</ele>
        <time>2019-06-16T09:50:01+02:00</time>
      </trkpt>
      <trkpt lat="45.58036" lon="6.01022">
        <ele>426</ele>
        <time>2019-06-16T09:52:34+02:00</time>
      </trkpt>
      <trkpt lat="45.58002" lon="6.01001">
        <ele>449</ele>
        <time>2019-06-16T09:56:03+02:00</time>
      </trkpt>
      <trkpt lat="45.57966" lon="6.00991">
        <ele>474</ele>
        <time>2019-06-16T09:59:30+02:00</time>
      </trkpt>
      <trkpt lat="45.57934" lon="6.01018">
        <ele>484</ele>
        <time>2019-06-16T10:01:49+02:00</time>
      </trkpt>
      <trkpt lat="45.57916" lon="6.01063">
        <ele>483</ele>
        <time>2019-06-16T10:06:18+02:00</time>
      </trkpt>
      <trkpt lat="45.57894" lon="6.01105">
        <ele>474</ele>
        <time>2019-06-16T10:07:07+02:00</time>
      </trkpt>
      <trkpt lat="45.57884" lon="6.01155">
        <ele>488</ele>
        <time>2019-06-16T10:07:36+02:00</time>
      </trkpt>
      <trkpt lat="45.57908" lon="6.01193">
        <ele>522</ele>
        <time>2019-06-16T10:09:54+02:00</time>
      </trkpt>
      <trkpt lat="45.57893" lon="6.0124">
        <ele>540</ele>
        <time>2019-06-16T10:13:05+02:00</time>
      </trkpt>
      <trkpt lat="45.57882" lon="6.01289">
        <ele>552</ele>
        <time>2019-06-16T10:14:18+02:00</time>
      </trkpt>
      <trkpt lat="45.57861" lon="6.01331">
        <ele>555</ele>
        <time>2019-06-16T10:15:33+02:00</time>
      </trkpt>
      <trkpt lat="45.57851" lon="6.0138">
        <ele>566</ele>
        <time>2019-06-16T10:16:57+02:00</time>
      </trkpt>
      <trkpt lat="45.57829" lon="6.01421">
        <ele>574</ele>
        <time>2019-06-16T10:19:23+02:00</time>
      </trkpt>
      <trkpt lat="45.57803" lon="6.01457">
        <ele>579</ele>
        <time>2019-06-16T10:20:17+02:00</time>
      </trkpt>
      <trkpt lat="45.57773" lon="6.01485">
        <ele>583</ele>
        <time>2019-06-16T10:20:59+02:00</time>
      </trkpt>
      <trkpt lat="45.57741" lon="6.01511">
        <ele>590</ele>
        <time>2019-06-16T10:21:48+02:00</time>
      </trkpt>
      <trkpt lat="45.57705" lon="6.01522">
        <ele>597</ele>
        <time>2019-06-16T10:22:45+02:00</time>
      </trkpt>
      <trkpt lat="45.57698" lon="6.01573">
        <ele>603</ele>
        <time>2019-06-16T10:24:21+02:00</time>
      </trkpt>
      <trkpt lat="45.57717" lon="6.01618">
        <ele>605</ele>
        <time>2019-06-16T10:25:33+02:00</time>
      </trkpt>
      <trkpt lat="45.57726" lon="6.01667">
        <ele>607</ele>
        <time>2019-06-16T10:27:28+02:00</time>
      </trkpt>
      <trkpt lat="45.5774" lon="6.01716">
        <ele>608</ele>
        <time>2019-06-16T10:28:18+02:00</time>
      </trkpt>
      <trkpt lat="45.57755" lon="6.01763">
        <ele>609</ele>
        <time>2019-06-16T10:29:12+02:00</time>
      </trkpt>
      <trkpt lat="45.57773" lon="6.01807">
        <ele>611</ele>
        <time>2019-06-16T10:30:02+02:00</time>
      </trkpt>
      <trkpt lat="45.57798" lon="6.01845">
        <ele>611</ele>
        <time>2019-06-16T10:30:56+02:00</time>
      </trkpt>
      <trkpt lat="45.57818" lon="6.01888">
        <ele>613</ele>
        <time>2019-06-16T10:31:36+02:00</time>
      </trkpt>
      <trkpt lat="45.5783" lon="6.01937">
        <ele>616</ele>
        <time>2019-06-16T10:32:33+02:00</time>
      </trkpt>
      <trkpt lat="45.57843" lon="6.01986">
        <ele>619</ele>
        <time>2019-06-16T10:33:11+02:00</time>
      </trkpt>
      <trkpt lat="45.57853" lon="6.02036">
        <ele>623</ele>
        <time>2019-06-16T10:33:51+02:00</time>
      </trkpt>
      <trkpt lat="45.57865" lon="6.02084">
        <ele>626</ele>
        <time>2019-06-16T10:34:37+02:00</time>
      </trkpt>
      <trkpt lat="45.57877" lon="6.02134">
        <ele>632</ele>
        <time>2019-06-16T10:35:25+02:00</time>
      </trkpt>
      <trkpt lat="45.57891" lon="6.02182">
        <ele>635</ele>
        <time>2019-06-16T10:36:12+02:00</time>
      </trkpt>
      <trkpt lat="45.57902" lon="6.02232">
        <ele>637</ele>
        <time>2019-06-16T10:36:55+02:00</time>
      </trkpt>
      <trkpt lat="45.57894" lon="6.02282">
        <ele>642</ele>
        <time>2019-06-16T10:37:40+02:00</time>
      </trkpt>
      <trkpt lat="45.5789" lon="6.02333">
        <ele>645</ele>
        <time>2019-06-16T10:38:23+02:00</time>
      </trkpt>
      <trkpt lat="45.57885" lon="6.02384">
        <ele>649</ele>
        <time>2019-06-16T10:39:08+02:00</time>
      </trkpt>
      <trkpt lat="45.57876" lon="6.02434">
        <ele>654</ele>
        <time>2019-06-16T10:40:35+02:00</time>
      </trkpt>
      <trkpt lat="45.57865" lon="6.02483">
        <ele>659</ele>
        <time>2019-06-16T10:41:14+02:00</time>
      </trkpt>
      <trkpt lat="45.57851" lon="6.02531">
        <ele>662</ele>
        <time>2019-06-16T10:41:50+02:00</time>
      </trkpt>
      <trkpt lat="45.57874" lon="6.02571">
        <ele>660</ele>
        <time>2019-06-16T10:43:15+02:00</time>
      </trkpt>
      <trkpt lat="45.5791" lon="6.02573">
        <ele>654</ele>
        <time>2019-06-16T10:43:54+02:00</time>
      </trkpt>
      <trkpt lat="45.57934" lon="6.02535">
        <ele>651</ele>
        <time>2019-06-16T10:44:51+02:00</time>
      </trkpt>
      <trkpt lat="45.5797" lon="6.02543">
        <ele>644</ele>
        <time>2019-06-16T10:45:55+02:00</time>
      </trkpt>
      <trkpt lat="45.58007" lon="6.02538">
        <ele>638</ele>
        <time>2019-06-16T10:46:27+02:00</time>
      </trkpt>
      <trkpt lat="45.57986" lon="6.02581">
        <ele>635</ele>
        <time>2019-06-16T10:48:46+02:00</time>
      </trkpt>
      <trkpt lat="45.58021" lon="6.02594">
        <ele>624</ele>
        <time>2019-06-16T10:49:53+02:00</time>
      </trkpt>
      <trkpt lat="45.58057" lon="6.02595">
        <ele>621</ele>
        <time>2019-06-16T10:52:08+02:00</time>
      </trkpt>
      <trkpt lat="45.58093" lon="6.0259">
        <ele>619</ele>
        <time>2019-06-16T10:56:10+02:00</time>
      </trkpt>
      <trkpt lat="45.58078" lon="6.02543">
        <ele>631</ele>
        <time>2019-06-16T11:00:34+02:00</time>
      </trkpt>
      <trkpt lat="45.58099" lon="6.025">
        <ele>627</ele>
        <time>2019-06-16T11:01:33+02:00</time>
      </trkpt>
      <trkpt lat="45.58091" lon="6.02449">
        <ele>627</ele>
        <time>2019-06-16T11:02:08+02:00</time>
      </trkpt>
      <trkpt lat="45.58097" lon="6.025">
        <ele>628</ele>
        <time>2019-06-16T11:04:35+02:00</time>
      </trkpt>
      <trkpt lat="45.58072" lon="6.02538">
        <ele>631</ele>
        <time>2019-06-16T11:05:53+02:00</time>
      </trkpt>
      <trkpt lat="45.58035" lon="6.02538">
        <ele>633</ele>
        <time>2019-06-16T11:07:05+02:00</time>
      </trkpt>
      <trkpt lat="45.58003" lon="6.02565">
        <ele>634</ele>
        <time>2019-06-16T11:07:45+02:00</time>
      </trkpt>
      <trkpt lat="45.57971" lon="6.02589">
        <ele>637</ele>
        <time>2019-06-16T11:08:32+02:00</time>
      </trkpt>
      <trkpt lat="45.57959" lon="6.02639">
        <ele>630</ele>
        <time>2019-06-16T11:09:37+02:00</time>
      </trkpt>
      <trkpt lat="45.57938" lon="6.02683">
        <ele>625</ele>
        <time>2019-06-16T11:10:12+02:00</time>
      </trkpt>
      <trkpt lat="45.57959" lon="6.02725">
        <ele>613</ele>
        <time>2019-06-16T11:11:59+02:00</time>
      </trkpt>
      <trkpt lat="45.57983" lon="6.02766">
        <ele>616</ele>
        <time>2019-06-16T11:12:48+02:00</time>
      </trkpt>
      <trkpt lat="45.58009" lon="6.02801">
        <ele>615</ele>
        <time>2019-06-16T11:13:30+02:00</time>
      </trkpt>
      <trkpt lat="45.58043" lon="6.02818">
        <ele>607</ele>
        <time>2019-06-16T11:14:16+02:00</time>
      </trkpt>
      <trkpt lat="45.58079" lon="6.02831">
        <ele>597</ele>
        <time>2019-06-16T11:15:40+02:00</time>
      </trkpt>
      <trkpt lat="45.58109" lon="6.02861">
        <ele>586</ele>
        <time>2019-06-16T11:16:30+02:00</time>
      </trkpt>
      <trkpt lat="45.58133" lon="6.029">
        <ele>573</ele>
        <time>2019-06-16T11:19:01+02:00</time>
      </trkpt>
      <trkpt lat="45.58167" lon="6.02885">
        <ele>570</ele>
        <time>2019-06-16T11:21:27+02:00</time>
      </trkpt>
      <trkpt lat="45.58204" lon="6.02879">
        <ele>580</ele>
        <time>2019-06-16T11:22:28+02:00</time>
      </trkpt>
      <trkpt lat="45.58235" lon="6.02854">
        <ele>588</ele>
        <time>2019-06-16T11:23:22+02:00</time>
      </trkpt>
      <trkpt lat="45.5821" lon="6.0289">
        <ele>585</ele>
        <time>2019-06-16T11:28:29+02:00</time>
      </trkpt>
      <trkpt lat="45.58244" lon="6.02909">
        <ele>605</ele>
        <time>2019-06-16T11:30:15+02:00</time>
      </trkpt>
      <trkpt lat="45.58266" lon="6.02867">
        <ele>608</ele>
        <time>2019-06-16T11:31:08+02:00</time>
      </trkpt>
      <trkpt lat="45.58292" lon="6.02831">
        <ele>611</ele>
        <time>2019-06-16T11:31:55+02:00</time>
      </trkpt>
      <trkpt lat="45.58325" lon="6.02807">
        <ele>612</ele>
        <time>2019-06-16T11:32:39+02:00</time>
      </trkpt>
      <trkpt lat="45.58362" lon="6.02804">
        <ele>616</ele>
        <time>2019-06-16T11:33:37+02:00</time>
      </trkpt>
      <trkpt lat="45.58398" lon="6.02803">
        <ele>619</ele>
        <time>2019-06-16T11:34:12+02:00</time>
      </trkpt>
      <trkpt lat="45.58435" lon="6.02813">
        <ele>621</ele>
        <time>2019-06-16T11:34:53+02:00</time>
      </trkpt>
      <trkpt lat="45.58471" lon="6.02815">
        <ele>622</ele>
        <time>2019-06-16T11:36:29+02:00</time>
      </trkpt>
      <trkpt lat="45.58508" lon="6.02822">
        <ele>624</ele>
        <time>2019-06-16T11:37:12+02:00</time>
      </trkpt>
      <trkpt lat="45.5854" lon="6.02847">
        <ele>628</ele>
        <time>2019-06-16T11:37:55+02:00</time>
      </trkpt>
      <trkpt lat="45.58565" lon="6.02885">
        <ele>633</ele>
        <time>2019-06-16T11:39:05+02:00</time>
      </trkpt>
      <trkpt lat="45.58602" lon="6.02885">
        <ele>633</ele>
        <time>2019-06-16T11:39:47+02:00</time>
      </trkpt>
      <trkpt lat="45.58636" lon="6.02906">
        <ele>637</ele>
        <time>2019-06-16T11:40:34+02:00</time>
      </trkpt>
      <trkpt lat="45.58667" lon="6.02931">
        <ele>643</ele>
        <time>2019-06-16T11:41:21+02:00</time>
      </trkpt>
      <trkpt lat="45.58702" lon="6.02941">
        <ele>646</ele>
        <time>2019-06-16T11:42:11+02:00</time>
      </trkpt>
      <trkpt lat="45.58737" lon="6.02927">
        <ele>646</ele>
        <time>2019-06-16T11:49:21+02:00</time>
      </trkpt>
      <trkpt lat="45.58772" lon="6.02909">
        <ele>645</ele>
        <time>2019-06-16T11:49:59+02:00</time>
      </trkpt>
      <trkpt lat="45.58808" lon="6.0291">
        <ele>644</ele>
        <time>2019-06-16T11:50:37+02:00</time>
      </trkpt>
      <trkpt lat="45.58838" lon="6.02942">
        <ele>647</ele>
        <time>2019-06-16T11:51:12+02:00</time>
      </trkpt>
      <trkpt lat="45.58874" lon="6.02939">
        <ele>646</ele>
        <time>2019-06-16T11:51:46+02:00</time>
      </trkpt>
      <trkpt lat="45.5891" lon="6.02935">
        <ele>646</ele>
        <time>2019-06-16T11:52:27+02:00</time>
      </trkpt>
      <trkpt lat="45.58943" lon="6.02959">
        <ele>655</ele>
        <time>2019-06-16T11:53:23+02:00</time>
      </trkpt>
      <trkpt lat="45.58979" lon="6.02965">
        <ele>658</ele>
        <time>2019-06-16T11:54:05+02:00</time>
      </trkpt>
      <trkpt lat="45.59012" lon="6.02942">
        <ele>654</ele>
        <time>2019-06-16T11:54:54+02:00</time>
      </trkpt>
      <trkpt lat="45.59049" lon="6.02943">
        <ele>654</ele>
        <time>2019-06-16T11:56:05+02:00</time>
      </trkpt>
      <trkpt lat="45.59085" lon="6.02945">
        <ele>654</ele>
        <time>2019-06-16T11:56:38+02:00</time>
      </trkpt>
      <trkpt lat="45.5912" lon="6.02937">
        <ele>654</ele>
        <time>2019-06-16T11:57:10+02:00</time>
      </trkpt>
      <trkpt lat="45.59157" lon="6.02931">
        <ele>653</ele>
        <time>2019-06-16T11:57:42+02:00</time>
      </trkpt>
      <trkpt lat="45.59193" lon="6.02934">
        <ele>653</ele>
        <time>2019-06-16T11:58:15+02:00</time>
      </trkpt>
      <trkpt lat="45.59228" lon="6.0295">
        <ele>655</ele>
        <time>2019-06-16T11:58:56+02:00</time>
      </trkpt>
      <trkpt lat="45.59265" lon="6.02953">
        <ele>652</ele>
        <time>2019-06-16T11:59:30+02:00</time>
      </trkpt>
      <trkpt lat="45.593" lon="6.02941">
        <ele>650</ele>
        <time>2019-06-16T12:00:03+02:00</time>
      </trkpt>
      <trkpt lat="45.59336" lon="6.02948">
        <ele>652</ele>
        <time>2019-06-16T12:00:42+02:00</time>
      </trkpt>
      <trkpt lat="45.59369" lon="6.02971">
        <ele>654</ele>
        <time>2019-06-16T12:01:17+02:00</time>
      </trkpt>
      <trkpt lat="45.59404" lon="6.02987">
        <ele>655</ele>
        <time>2019-06-16T12:01:52+02:00</time>
      </trkpt>
      <trkpt lat="45.59438" lon="6.03004">
        <ele>657</ele>
        <time>2019-06-16T12:02:29+02:00</time>
      </trkpt>
      <trkpt lat="45.59475" lon="6.03012">
        <ele>661</ele>
        <time>2019-06-16T12:03:06+02:00</time>
      </trkpt>
      <trkpt lat="45.59511" lon="6.03013">
        <ele>664</ele>
        <time>2019-06-16T12:03:45+02:00</time>
      </trkpt>
      <trkpt lat="45.59547" lon="6.03019">
        <ele>665</ele>
        <time>2019-06-16T12:04:22+02:00</time>
      </trkpt>
      <trkpt lat="45.59581" lon="6.03037">
        <ele>667</ele>
        <time>2019-06-16T12:05:02+02:00</time>
      </trkpt>
      <trkpt lat="45.5961" lon="6.03069">
        <ele>668</ele>
        <time>2019-06-16T12:05:57+02:00</time>
      </trkpt>
      <trkpt lat="45.59639" lon="6.031">
        <ele>667</ele>
        <time>2019-06-16T12:06:34+02:00</time>
      </trkpt>
      <trkpt lat="45.59675" lon="6.03101">
        <ele>660</ele>
        <time>2019-06-16T12:07:23+02:00</time>
      </trkpt>
      <trkpt lat="45.59711" lon="6.03108">
        <ele>656</ele>
        <time>2019-06-16T12:07:53+02:00</time>
      </trkpt>
      <trkpt lat="45.59748" lon="6.03098">
        <ele>652</ele>
        <time>2019-06-16T12:08:26+02:00</time>
      </trkpt>
      <trkpt lat="45.5976" lon="6.03048">
        <ele>652</ele>
        <time>2019-06-16T12:09:29+02:00</time>
      </trkpt>
      <trkpt lat="45.59744" lon="6.03">
        <ele>652</ele>
        <time>2019-06-16T12:10:03+02:00</time>
      </trkpt>
      <trkpt lat="45.59725" lon="6.02957">
        <ele>649</ele>
        <time>2019-06-16T12:10:34+02:00</time>
      </trkpt>
      <trkpt lat="45.59702" lon="6.02916">
        <ele>642</ele>
        <time>2019-06-16T12:11:08+02:00</time>
      </trkpt>
      <trkpt lat="45.59692" lon="6.02865">
        <ele>641</ele>
        <time>2019-06-16T12:11:42+02:00</time>
      </trkpt>
      <trkpt lat="45.59686" lon="6.02813">
        <ele>642</ele>
        <time>2019-06-16T12:12:15+02:00</time>
      </trkpt>
      <trkpt lat="45.59666" lon="6.02769">
        <ele>639</ele>
        <time>2019-06-16T12:12:46+02:00</time>
      </trkpt>
      <trkpt lat="45.59655" lon="6.0272">
        <ele>640</ele>
        <time>2019-06-16T12:13:45+02:00</time>
      </trkpt>
      <trkpt lat="45.59637" lon="6.02676">
        <ele>637</ele>
        <time>2019-06-16T12:14:39+02:00</time>
      </trkpt>
      <trkpt lat="45.59604" lon="6.02654">
        <ele>630</ele>
        <time>2019-06-16T12:15:22+02:00</time>
      </trkpt>
      <trkpt lat="45.5957" lon="6.02636">
        <ele>630</ele>
        <time>2019-06-16T12:16:08+02:00</time>
      </trkpt>
      <trkpt lat="45.59566" lon="6.02584">
        <ele>628</ele>
        <time>2019-06-16T12:17:05+02:00</time>
      </trkpt>
      <trkpt lat="45.5954" lon="6.02512">
        <ele>620</ele>
        <time>2019-06-16T13:12:21+02:00</time>
      </trkpt>
      <trkpt lat="45.59563" lon="6.02472">
        <ele>614</ele>
        <time>2019-06-16T13:14:15+02:00</time>
      </trkpt>
      <trkpt lat="45.59599" lon="6.02461">
        <ele>611</ele>
        <time>2019-06-16T13:14:55+02:00</time>
      </trkpt>
      <trkpt lat="45.59633" lon="6.02444">
        <ele>608</ele>
        <time>2019-06-16T13:15:30+02:00</time>
      </trkpt>
      <trkpt lat="45.59667" lon="6.02422">
        <ele>609</ele>
        <time>2019-06-16T13:15:59+02:00</time>
      </trkpt>
      <trkpt lat="45.59701" lon="6.02404">
        <ele>612</ele>
        <time>2019-06-16T13:16:37+02:00</time>
      </trkpt>
      <trkpt lat="45.59737" lon="6.02389">
        <ele>615</ele>
        <time>2019-06-16T13:17:10+02:00</time>
      </trkpt>
      <trkpt lat="45.59761" lon="6.02351">
        <ele>610</ele>
        <time>2019-06-16T13:17:50+02:00</time>
      </trkpt>
      <trkpt lat="45.5979" lon="6.02317">
        <ele>603</ele>
        <time>2019-06-16T13:18:28+02:00</time>
      </trkpt>
      <trkpt lat="45.59827" lon="6.02313">
        <ele>603</ele>
        <time>2019-06-16T13:19:07+02:00</time>
      </trkpt>
      <trkpt lat="45.59861" lon="6.02296">
        <ele>600</ele>
        <time>2019-06-16T13:19:40+02:00</time>
      </trkpt>
      <trkpt lat="45.59896" lon="6.0228">
        <ele>594</ele>
        <time>2019-06-16T13:20:17+02:00</time>
      </trkpt>
      <trkpt lat="45.59932" lon="6.02287">
        <ele>590</ele>
        <time>2019-06-16T13:20:56+02:00</time>
      </trkpt>
      <trkpt lat="45.59966" lon="6.02307">
        <ele>591</ele>
        <time>2019-06-16T13:21:31+02:00</time>
      </trkpt>
      <trkpt lat="45.60003" lon="6.02305">
        <ele>588</ele>
        <time>2019-06-16T13:22:07+02:00</time>
      </trkpt>
      <trkpt lat="45.60038" lon="6.0232">
        <ele>592</ele>
        <time>2019-06-16T13:22:51+02:00</time>
      </trkpt>
      <trkpt lat="45.60074" lon="6.0231">
        <ele>584</ele>
        <time>2019-06-16T13:23:22+02:00</time>
      </trkpt>
      <trkpt lat="45.60107" lon="6.02287">
        <ele>574</ele>
        <time>2019-06-16T13:23:59+02:00</time>
      </trkpt>
      <trkpt lat="45.60143" lon="6.02289">
        <ele>573</ele>
        <time>2019-06-16T13:25:05+02:00</time>
      </trkpt>
      <trkpt lat="45.6018" lon="6.02287">
        <ele>578</ele>
        <time>2019-06-16T13:26:34+02:00</time>
      </trkpt>
      <trkpt lat="45.60169" lon="6.02237">
        <ele>582</ele>
        <time>2019-06-16T13:30:25+02:00</time>
      </trkpt>
      <trkpt lat="45.60133" lon="6.02224">
        <ele>580</ele>
        <time>2019-06-16T13:31:08+02:00</time>
      </trkpt>
      <trkpt lat="45.60102" lon="6.02198">
        <ele>583</ele>
        <time>2019-06-16T13:31:47+02:00</time>
      </trkpt>
      <trkpt lat="45.60074" lon="6.02167">
        <ele>583</ele>
        <time>2019-06-16T13:32:26+02:00</time>
      </trkpt>
      <trkpt lat="45.60045" lon="6.02134">
        <ele>585</ele>
        <time>2019-06-16T13:33:03+02:00</time>
      </trkpt>
      <trkpt lat="45.60011" lon="6.02113">
        <ele>584</ele>
        <time>2019-06-16T13:33:42+02:00</time>
      </trkpt>
      <trkpt lat="45.59978" lon="6.02093">
        <ele>585</ele>
        <time>2019-06-16T13:34:13+02:00</time>
      </trkpt>
      <trkpt lat="45.59944" lon="6.02076">
        <ele>581</ele>
        <time>2019-06-16T13:34:52+02:00</time>
      </trkpt>
      <trkpt lat="45.5991" lon="6.02055">
        <ele>585</ele>
        <time>2019-06-16T13:35:20+02:00</time>
      </trkpt>
      <trkpt lat="45.59876" lon="6.02036">
        <ele>587</ele>
        <time>2019-06-16T13:35:56+02:00</time>
      </trkpt>
      <trkpt lat="45.5984" lon="6.0203">
        <ele>583</ele>
        <time>2019-06-16T13:36:57+02:00</time>
      </trkpt>
      <trkpt lat="45.59804" lon="6.02018">
        <ele>583</ele>
        <time>2019-06-16T13:37:31+02:00</time>
      </trkpt>
      <trkpt lat="45.59768" lon="6.02018">
        <ele>585</ele>
        <time>2019-06-16T13:38:03+02:00</time>
      </trkpt>
      <trkpt lat="45.59731" lon="6.02028">
        <ele>585</ele>
        <time>2019-06-16T13:38:49+02:00</time>
      </trkpt>
      <trkpt lat="45.59695" lon="6.0203">
        <ele>587</ele>
        <time>2019-06-16T13:39:17+02:00</time>
      </trkpt>
      <trkpt lat="45.59659" lon="6.0202">
        <ele>588</ele>
        <time>2019-06-16T13:39:53+02:00</time>
      </trkpt>
      <trkpt lat="45.59623" lon="6.02012">
        <ele>589</ele>
        <time>2019-06-16T13:40:34+02:00</time>
      </trkpt>
      <trkpt lat="45.59587" lon="6.02012">
        <ele>591</ele>
        <time>2019-06-16T13:41:09+02:00</time>
      </trkpt>
      <trkpt lat="45.59551" lon="6.02011">
        <ele>595</ele>
        <time>2019-06-16T13:41:47+02:00</time>
      </trkpt>
      <trkpt lat="45.59568" lon="6.01965">
        <ele>603</ele>
        <time>2019-06-16T13:43:31+02:00</time>
      </trkpt>
      <trkpt lat="45.59532" lon="6.01953">
        <ele>608</ele>
        <time>2019-06-16T13:44:38+02:00</time>
      </trkpt>
      <trkpt lat="45.59497" lon="6.01969">
        <ele>611</ele>
        <time>2019-06-16T13:45:47+02:00</time>
      </trkpt>
      <trkpt lat="45.59462" lon="6.01961">
        <ele>613</ele>
        <time>2019-06-16T13:46:27+02:00</time>
      </trkpt>
      <trkpt lat="45.59426" lon="6.0195">
        <ele>613</ele>
        <time>2019-06-16T13:47:01+02:00</time>
      </trkpt>
      <trkpt lat="45.59392" lon="6.01932">
        <ele>613</ele>
        <time>2019-06-16T13:47:37+02:00</time>
      </trkpt>
      <trkpt lat="45.59363" lon="6.01901">
        <ele>614</ele>
        <time>2019-06-16T13:48:16+02:00</time>
      </trkpt>
      <trkpt lat="45.59328" lon="6.01887">
        <ele>621</ele>
        <time>2019-06-16T13:48:58+02:00</time>
      </trkpt>
      <trkpt lat="45.59293" lon="6.01869">
        <ele>625</ele>
        <time>2019-06-16T13:49:40+02:00</time>
      </trkpt>
      <trkpt lat="45.59257" lon="6.01857">
        <ele>625</ele>
        <time>2019-06-16T13:50:14+02:00</time>
      </trkpt>
      <trkpt lat="45.59231" lon="6.01821">
        <ele>625</ele>
        <time>2019-06-16T13:53:44+02:00</time>
      </trkpt>
      <trkpt lat="45.5921" lon="6.01779">
        <ele>626</ele>
        <time>2019-06-16T13:54:36+02:00</time>
      </trkpt>
      <trkpt lat="45.59196" lon="6.01731">
        <ele>626</ele>
        <time>2019-06-16T13:55:12+02:00</time>
      </trkpt>
      <trkpt lat="45.59175" lon="6.01689">
        <ele>626</ele>
        <time>2019-06-16T13:55:56+02:00</time>
      </trkpt>
      <trkpt lat="45.59158" lon="6.01642">
        <ele>627</ele>
        <time>2019-06-16T13:56:41+02:00</time>
      </trkpt>
      <trkpt lat="45.59133" lon="6.01604">
        <ele>626</ele>
        <time>2019-06-16T13:57:14+02:00</time>
      </trkpt>
      <trkpt lat="45.5911" lon="6.01564">
        <ele>625</ele>
        <time>2019-06-16T13:57:46+02:00</time>
      </trkpt>
      <trkpt lat="45.59086" lon="6.01525">
        <ele>624</ele>
        <time>2019-06-16T13:58:18+02:00</time>
      </trkpt>
      <trkpt lat="45.59064" lon="6.01484">
        <ele>623</ele>
        <time>2019-06-16T13:58:49+02:00</time>
      </trkpt>
      <trkpt lat="45.59041" lon="6.01444">
        <ele>622</ele>
        <time>2019-06-16T13:59:20+02:00</time>
      </trkpt>
      <trkpt lat="45.59023" lon="6.01399">
        <ele>622</ele>
        <time>2019-06-16T13:59:50+02:00</time>
      </trkpt>
      <trkpt lat="45.59012" lon="6.0135">
        <ele>623</ele>
        <time>2019-06-16T14:00:47+02:00</time>
      </trkpt>
      <trkpt lat="45.59007" lon="6.01299">
        <ele>626</ele>
        <time>2019-06-16T14:01:30+02:00</time>
      </trkpt>
      <trkpt lat="45.59001" lon="6.01248">
        <ele>629</ele>
        <time>2019-06-16T14:02:04+02:00</time>
      </trkpt>
      <trkpt lat="45.58987" lon="6.012">
        <ele>631</ele>
        <time>2019-06-16T14:02:47+02:00</time>
      </trkpt>
      <trkpt lat="45.58978" lon="6.0115">
        <ele>634</ele>
        <time>2019-06-16T14:03:34+02:00</time>
      </trkpt>
      <trkpt lat="45.58955" lon="6.0111">
        <ele>635</ele>
        <time>2019-06-16T14:04:25+02:00</time>
      </trkpt>
      <trkpt lat="45.58935" lon="6.01066">
        <ele>636</ele>
        <time>2019-06-16T14:05:13+02:00</time>
      </trkpt>
      <trkpt lat="45.58912" lon="6.01026">
        <ele>637</ele>
        <time>2019-06-16T14:05:46+02:00</time>
      </trkpt>
      <trkpt lat="45.58902" lon="6.00976">
        <ele>639</ele>
        <time>2019-06-16T14:06:34+02:00</time>
      </trkpt>
      <trkpt lat="45.58899" lon="6.00924">
        <ele>643</ele>
        <time>2019-06-16T14:07:20+02:00</time>
      </trkpt>
      <trkpt lat="45.58887" lon="6.00875">
        <ele>644</ele>
        <time>2019-06-16T14:07:58+02:00</time>
      </trkpt>
      <trkpt lat="45.58881" lon="6.00824">
        <ele>645</ele>
        <time>2019-06-16T14:08:42+02:00</time>
      </trkpt>
      <trkpt lat="45.58878" lon="6.00772">
        <ele>647</ele>
        <time>2019-06-16T14:09:48+02:00</time>
      </trkpt>
      <trkpt lat="45.58861" lon="6.00727">
        <ele>644</ele>
        <time>2019-06-16T14:10:23+02:00</time>
      </trkpt>
      <trkpt lat="45.58842" lon="6.00683">
        <ele>639</ele>
        <time>2019-06-16T14:10:54+02:00</time>
      </trkpt>
      <trkpt lat="45.58825" lon="6.00637">
        <ele>636</ele>
        <time>2019-06-16T14:11:26+02:00</time>
      </trkpt>
      <trkpt lat="45.58807" lon="6.00591">
        <ele>632</ele>
        <time>2019-06-16T14:12:02+02:00</time>
      </trkpt>
      <trkpt lat="45.58787" lon="6.00547">
        <ele>627</ele>
        <time>2019-06-16T14:12:40+02:00</time>
      </trkpt>
      <trkpt lat="45.58764" lon="6.00508">
        <ele>620</ele>
        <time>2019-06-16T14:13:15+02:00</time>
      </trkpt>
      <trkpt lat="45.5875" lon="6.00461">
        <ele>615</ele>
        <time>2019-06-16T14:14:00+02:00</time>
      </trkpt>
      <trkpt lat="45.58724" lon="6.00423">
        <ele>609</ele>
        <time>2019-06-16T14:15:47+02:00</time>
      </trkpt>
      <trkpt lat="45.58688" lon="6.0043">
        <ele>600</ele>
        <time>2019-06-16T14:16:24+02:00</time>
      </trkpt>
      <trkpt lat="45.58652" lon="6.00439">
        <ele>594</ele>
        <time>2019-06-16T14:17:23+02:00</time>
      </trkpt>
      <trkpt lat="45.58616" lon="6.00445">
        <ele>590</ele>
        <time>2019-06-16T14:18:07+02:00</time>
      </trkpt>
      <trkpt lat="45.58599" lon="6.00399">
        <ele>587</ele>
        <time>2019-06-16T14:19:10+02:00</time>
      </trkpt>
      <trkpt lat="45.586" lon="6.00347">
        <ele>584</ele>
        <time>2019-06-16T14:19:42+02:00</time>
      </trkpt>
      <trkpt lat="45.58603" lon="6.00294">
        <ele>583</ele>
        <time>2019-06-16T14:20:16+02:00</time>
      </trkpt>
      <trkpt lat="45.58602" lon="6.00241">
        <ele>582</ele>
        <time>2019-06-16T14:20:46+02:00</time>
      </trkpt>
      <trkpt lat="45.58602" lon="6.00189">
        <ele>580</ele>
        <time>2019-06-16T14:21:27+02:00</time>
      </trkpt>
      <trkpt lat="45.586" lon="6.00137">
        <ele>580</ele>
        <time>2019-06-16T14:22:00+02:00</time>
      </trkpt>
      <trkpt lat="45.58597" lon="6.00085">
        <ele>580</ele>
        <time>2019-06-16T14:22:33+02:00</time>
      </trkpt>
      <trkpt lat="45.58602" lon="6.00034">
        <ele>581</ele>
        <time>2019-06-16T14:23:05+02:00</time>
      </trkpt>
      <trkpt lat="45.58604" lon="5.99982">
        <ele>581</ele>
        <time>2019-06-16T14:23:38+02:00</time>
      </trkpt>
      <trkpt lat="45.58603" lon="5.99929">
        <ele>581</ele>
        <time>2019-06-16T14:24:09+02:00</time>
      </trkpt>
      <trkpt lat="45.58604" lon="5.99877">
        <ele>581</ele>
        <time>2019-06-16T14:24:43+02:00</time>
      </trkpt>
      <trkpt lat="45.58597" lon="5.99826">
        <ele>579</ele>
        <time>2019-06-16T14:25:13+02:00</time>
      </trkpt>
      <trkpt lat="45.58561" lon="5.9982">
        <ele>573</ele>
        <time>2019-06-16T14:25:42+02:00</time>
      </trkpt>
      <trkpt lat="45.58524" lon="5.99819">
        <ele>567</ele>
        <time>2019-06-16T14:26:47+02:00</time>
      </trkpt>
      <trkpt lat="45.58487" lon="5.99814">
        <ele>564</ele>
        <time>2019-06-16T14:27:35+02:00</time>
      </trkpt>
    </trkseg>
  </trk>
</gpx>